Saturday, August 18, 2018, 1:52 PM EDT
Back to Local

KFME, Fort Meade / Tipton

Location: Laurel, MD, United States Lat: 39.083
Local Time: 1:52 PM EDT (17:52 GMT) Lon: -76.767
Time Zone: US/Eastern Elev: 150 ft

Show me the last for .
Show Decoded

2018-08-18 13:33 METAR KFME 181733Z AUTO 22007KT 190V250 10SM CLR 28/22 A2990 RMK AO1 =
2018-08-18 13:12 METAR KFME 181712Z AUTO 25006KT 10SM CLR 28/22 A2990 RMK AO1 =
2018-08-18 12:54 METAR KFME 181654Z AUTO 24007KT 10SM CLR 28/23 A2990 RMK AO1 =
2018-08-18 12:33 METAR KFME 181633Z AUTO 24005KT 10SM CLR 28/23 A2991 RMK AO1 =
2018-08-18 12:12 METAR KFME 181612Z AUTO 24007KT 10SM CLR 28/23 A2991 RMK AO1 =
2018-08-18 11:54 METAR KFME 181554Z AUTO 24007KT 10SM CLR 28/23 A2992 RMK AO1 =
2018-08-18 11:33 METAR KFME 181533Z AUTO 25007KT 10SM CLR 27/22 A2993 RMK AO1 =
2018-08-18 11:12 METAR KFME 181512Z AUTO 25006KT 10SM CLR 28/23 A2993 RMK AO1 =
2018-08-18 10:54 METAR KFME 181454Z AUTO 23004KT 10SM CLR 27/23 A2993 RMK AO1 =
2018-08-18 10:33 METAR KFME 181433Z AUTO 24004KT 10SM CLR 26/23 A2994 RMK AO1 =
2018-08-18 10:12 METAR KFME 181412Z AUTO 26004KT 10SM CLR 26/23 A2994 RMK AO1 =
2018-08-18 09:54 METAR KFME 181354Z AUTO 26003KT 10SM CLR 25/23 A2994 RMK AO1 =
2018-08-18 09:33 METAR KFME 181333Z AUTO 25003KT 10SM CLR 24/22 A2995 RMK AO1 =
2018-08-18 09:12 METAR KFME 181312Z AUTO 00000KT 10SM CLR 23/22 A2995 RMK AO1 =
2018-08-18 08:54 METAR KFME 181254Z AUTO 00000KT 10SM CLR 23/22 A2995 RMK AO1 =
2018-08-18 08:33 METAR KFME 181233Z AUTO 00000KT 10SM CLR 22/22 A2995 RMK AO1 =
2018-08-18 08:12 METAR KFME 181212Z AUTO 00000KT 5SM CLR 22/21 A2995 RMK AO1 =
2018-08-18 07:54 METAR KFME 181154Z AUTO 00000KT 5SM CLR 22/21 A2995 RMK AO1 =
2018-08-18 07:33 METAR KFME 181133Z AUTO 00000KT 5SM CLR 21/21 A2995 RMK AO1 =
2018-08-18 07:12 METAR KFME 181112Z AUTO 00000KT 4SM CLR 21/21 A2995 RMK AO1 =
2018-08-18 06:54 METAR KFME 181054Z AUTO 00000KT 4SM CLR 21/21 A2995 RMK AO1 =
2018-08-18 06:33 METAR KFME 181033Z AUTO 00000KT 4SM CLR 21/21 A2995 RMK AO1 =
2018-08-18 06:12 METAR KFME 181012Z AUTO 00000KT 5SM CLR 21/21 A2995 RMK AO1 =
2018-08-18 05:54 METAR KFME 180954Z AUTO 00000KT 5SM CLR 21/21 A2995 RMK AO1 =
2018-08-18 05:33 METAR KFME 180933Z AUTO 00000KT 5SM CLR 21/21 A2995 RMK AO1 =
2018-08-18 05:12 METAR KFME 180912Z AUTO 00000KT 5SM CLR 21/21 A2995 RMK AO1 =
2018-08-18 04:54 METAR KFME 180854Z AUTO 00000KT 5SM CLR 21/21 A2994 RMK AO1 =
2018-08-18 04:33 METAR KFME 180833Z AUTO 00000KT 5SM CLR 21/21 A2995 RMK AO1 =
2018-08-18 04:12 METAR KFME 180812Z AUTO 00000KT 5SM CLR 21/21 A2994 RMK AO1 =
2018-08-18 03:54 METAR KFME 180754Z AUTO 00000KT 7SM SCT075 SCT110 21/21 A2994 RMK AO1 =
2018-08-18 03:33 METAR KFME 180733Z AUTO 00000KT 7SM SCT050 SCT070 BKN080 22/21 A2995 RMK AO1 =
2018-08-18 03:12 METAR KFME 180712Z AUTO 26010G14KT 7SM SCT043 SCT050 BKN065 22/21 A2998 RMK AO1
                 =
2018-08-18 02:54 METAR KFME 180654Z AUTO 00000KT 5SM SCT090 21/21 A2996 RMK AO1 =
2018-08-18 02:33 METAR KFME 180633Z AUTO 00000KT 5SM CLR 21/21 A2996 RMK AO1 =
2018-08-18 02:12 METAR KFME 180612Z AUTO 00000KT 7SM CLR 21/21 A2996 RMK AO1 =
2018-08-18 01:54 METAR KFME 180554Z AUTO 00000KT 7SM CLR 21/21 A2997 RMK AO1 =
2018-08-18 01:33 METAR KFME 180533Z AUTO 00000KT 7SM CLR 21/21 A2998 RMK AO1 =
2018-08-18 01:12 METAR KFME 180512Z AUTO 00000KT 5SM CLR 22/21 A2998 RMK AO1 =
2018-08-18 00:54 METAR KFME 180454Z AUTO 00000KT 7SM CLR 22/21 A2998 RMK AO1 =
2018-08-18 00:33 METAR KFME 180433Z AUTO 00000KT 5SM CLR 22/21 A2998 RMK AO1 =
2018-08-18 00:12 METAR KFME 180412Z AUTO 00000KT 7SM CLR 22/21 A2998 RMK AO1 =
2018-08-17 23:54 METAR KFME 180354Z AUTO 00000KT 7SM CLR 22/21 A2998 RMK AO1 =
2018-08-17 23:33 METAR KFME 180333Z AUTO 00000KT 7SM CLR 22/22 A2998 RMK AO1 =
2018-08-17 23:12 METAR KFME 180312Z AUTO 00000KT 7SM CLR 22/22 A2998 RMK AO1 =
2018-08-17 22:54 METAR KFME 180254Z AUTO 00000KT 7SM CLR 22/22 A2998 RMK AO1 =
2018-08-17 22:33 METAR KFME 180233Z AUTO 00000KT 5SM CLR 22/22 A2998 RMK AO1 =
2018-08-17 22:12 METAR KFME 180212Z AUTO 00000KT 7SM CLR 22/22 A2998 RMK AO1 =
2018-08-17 21:54 METAR KFME 180154Z AUTO 00000KT 7SM CLR 22/22 A2999 RMK AO1 =
2018-08-17 21:33 METAR KFME 180133Z AUTO 00000KT 7SM CLR 23/22 A2999 RMK AO1 =
2018-08-17 21:12 METAR KFME 180112Z AUTO 00000KT 7SM CLR 23/22 A2999 RMK AO1 =
2018-08-17 20:54 METAR KFME 180054Z AUTO 00000KT 7SM CLR 23/22 A2999 RMK AO1 =
2018-08-17 20:33 METAR KFME 180033Z AUTO 00000KT 7SM CLR 23/22 A2998 RMK AO1 =
2018-08-17 20:12 METAR KFME 180012Z AUTO 00000KT 7SM CLR 24/22 A2998 RMK AO1 =
2018-08-17 19:54 METAR KFME 172354Z AUTO 00000KT 7SM SCT039 SCT046 24/23 A2998 RMK AO1 =
2018-08-17 19:33 METAR KFME 172333Z AUTO 25008G16KT 7SM SCT038 SCT047 BKN085 26/24 A2999 RMK AO1
                 =
2018-08-17 19:12 METAR KFME 172312Z AUTO 22003KT 10SM SCT049 SCT055 SCT065 27/24 A2998 RMK AO1 =
2018-08-17 18:54 METAR KFME 172254Z AUTO 20003KT 10SM SCT065 27/24 A2998 RMK AO1 =
2018-08-17 18:33 METAR KFME 172233Z AUTO 00000KT 10SM CLR 27/23 A2998 RMK AO1 =
2018-08-17 18:12 METAR KFME 172212Z AUTO 19005KT 10SM CLR 28/24 A2998 RMK AO1 =
2018-08-17 17:54 METAR KFME 172154Z AUTO 19005KT 10SM CLR 28/24 A2998 RMK AO1 =
2018-08-17 17:33 METAR KFME 172133Z AUTO 21003KT 10SM CLR 28/24 A2998 RMK AO1 =
2018-08-17 17:12 METAR KFME 172112Z AUTO 20004KT 10SM CLR 28/23 A2998 RMK AO1 =
2018-08-17 16:54 METAR KFME 172054Z AUTO 21006KT 10SM CLR 28/23 A2999 RMK AO1 =
2018-08-17 16:33 METAR KFME 172033Z AUTO 20008G14KT 10SM A2998 RMK AO1 =
2018-08-17 16:12 METAR KFME 172012Z AUTO 18008G15KT 10SM 31/22 A2999 RMK AO1 =
2018-08-17 15:54 METAR KFME 171954Z AUTO 21010KT 10SM 32/23 A2999 RMK AO1 =
2018-08-17 15:33 METAR KFME 171933Z AUTO 20010KT 10SM 32/22 A3000 RMK AO1 =
2018-08-17 15:12 METAR KFME 171912Z AUTO 20008KT 10SM 32/23 A3000 RMK AO1 =
2018-08-17 14:54 METAR KFME 171854Z AUTO 22008KT 10SM 32/22 A3001 RMK AO1 =
2018-08-17 14:33 METAR KFME 171833Z AUTO 18007KT 10SM 32/23 A3002 RMK AO1 =
2018-08-17 14:12 METAR KFME 171812Z AUTO 17006KT 10SM 32/23 A3003 RMK AO1 =
2018-08-17 13:54 METAR KFME 171754Z AUTO 16004KT 10SM CLR 30/25 A3003 RMK AO1 =

Support USWX by starting your Amazon purchase here.